Time;durP1;ratioP1;P1;durP2;ratioP2;P2;SDS_P1;SDS_P2;PMS_P1;PMS_P2;Temp;Humidity;BMP_temperature;BMP_pressure;BME280_temperature;BME280_humidity;BME280_pressure;Samples;Min_cycle;Max_cycle;Signal;HPM_P1;HPM_P2
2024/04/17 00:02:37;;;;;;;302.07;75.40;;;;;4.90;95667.00;;;;5432423;26;20455;-69
2024/04/17 00:05:28;;;;;;;299.27;75.23;;;2.70;99.90;4.40;95662.00;;;;5437512;26;20522;-69
2024/04/17 00:08:19;;;;;;;298.90;73.47;;;2.60;99.90;4.00;95650.00;;;;5433045;26;20457;-69
2024/04/17 00:11:09;;;;;;;300.63;76.30;;;2.40;99.90;4.50;95651.00;;;;5419347;26;21049;-69
2024/04/17 00:14:00;;;;;;;306.87;75.90;;;;;4.40;95649.00;;;;5440565;26;20544;-69
2024/04/17 00:16:48;;;;;;;313.37;81.57;;;2.50;99.90;4.50;95641.00;;;;5443241;26;20578;-69
2024/04/17 00:19:39;;;;;;;272.90;78.93;;;2.40;99.90;4.50;95659.00;;;;5431269;26;20539;-69
2024/04/17 00:22:27;;;;;;;278.93;75.07;;;2.40;99.90;4.60;95651.00;;;;5424918;26;20541;-69
2024/04/17 00:25:21;;;;;;;280.30;75.83;;;2.40;99.90;4.20;95644.00;;;;5432962;26;20518;-69
2024/04/17 00:28:11;;;;;;;274.93;71.83;;;2.40;99.90;3.90;95634.00;;;;5411637;26;21142;-69
2024/04/17 00:30:59;;;;;;;293.23;73.13;;;2.20;99.90;4.30;95636.00;;;;5446299;26;20521;-69
2024/04/17 00:33:50;;;;;;;296.57;79.60;;;2.30;99.90;4.40;95634.00;;;;5447445;26;21051;-69
2024/04/17 00:36:38;;;;;;;287.73;74.90;;;2.30;99.90;4.40;95620.00;;;;5431743;26;20518;-69
2024/04/17 00:39:29;;;;;;;258.60;76.47;;;2.20;99.90;3.90;95611.00;;;;5412513;26;20999;-69
2024/04/17 00:42:19;;;;;;;278.23;75.07;;;2.20;99.90;3.80;95607.00;;;;5428843;26;20539;-69
2024/04/17 00:45:10;;;;;;;281.73;73.20;;;2.10;99.90;3.60;95595.00;;;;5433524;26;20521;-69
2024/04/17 00:47:58;;;;;;;287.20;72.53;;;2.00;99.90;3.70;95593.00;;;;5442224;26;20545;-69
2024/04/17 00:50:50;;;;;;;319.57;78.27;;;;;4.00;95589.00;;;;5444551;26;20534;-69
2024/04/17 00:53:39;;;;;;;310.47;74.13;;;;;4.00;95594.00;;;;5434471;26;20531;-69
2024/04/17 00:56:30;;;;;;;307.50;73.80;;;;;3.50;95577.00;;;;5444706;26;20458;-69
2024/04/17 00:59:21;;;;;;;302.33;73.60;;;;;3.80;95583.00;;;;5421095;26;20514;-69
2024/04/17 01:02:12;;;;;;;306.30;72.43;;;;;3.80;95574.00;;;;5434385;26;20537;-69
2024/04/17 01:05:00;;;;;;;301.97;74.60;;;;;3.80;95570.00;;;;5431741;26;20463;-69
2024/04/17 01:07:51;;;;;;;329.73;78.77;;;;;3.80;95570.00;;;;5414908;26;21053;-69
2024/04/17 01:10:39;;;;;;;319.43;71.70;;;;;3.80;95557.00;;;;5412404;26;20554;-69
2024/04/17 01:13:30;;;;;;;308.30;68.40;;;;;3.60;95559.00;;;;5412679;26;20542;-69
2024/04/17 01:16:21;;;;;;;314.73;71.70;;;;;3.90;95553.00;;;;5436981;26;20620;-69
2024/04/17 01:19:12;;;;;;;297.17;72.53;;;;;3.40;95548.00;;;;5437971;26;20463;-69
2024/04/17 01:22:00;;;;;;;305.97;73.30;;;;;3.60;95548.00;;;;5439758;26;20451;-69
2024/04/17 01:24:54;;;;;;;323.70;77.77;;;;;3.80;95535.00;;;;5425483;26;20457;-69
2024/04/17 01:27:42;;;;;;;317.10;78.63;;;;;3.80;95528.00;;;;5411007;26;20514;-68
2024/04/17 01:30:34;;;;;;;302.73;72.83;;;;;3.40;95528.00;;;;5425426;26;20478;-68
2024/04/17 01:33:22;;;;;;;302.20;76.30;;;;;3.60;95523.00;;;;5428322;26;21015;-69
2024/04/17 01:36:13;;;;;;;304.07;72.13;;;;;3.80;95524.00;;;;5426982;26;20529;-69
2024/04/17 01:39:01;;;;;;;315.37;73.67;;;;;3.60;95528.00;;;;5411743;26;20519;-69
2024/04/17 01:41:55;;;;;;;324.17;76.17;;;;;3.50;95533.00;;;;5428140;26;21047;-69
2024/04/17 01:44:43;;;;;;;327.50;78.23;;;;;3.90;95528.00;;;;5427279;26;20511;-69
2024/04/17 01:47:34;;;;;;;325.63;79.03;;;;;3.70;95523.00;;;;5446583;26;20514;-69
2024/04/17 01:50:27;;;;;;;314.37;72.93;;;;;3.90;95526.00;;;;5423315;26;20537;-69
2024/04/17 01:53:18;;;;;;;312.43;71.83;;;;;3.90;95526.00;;;;5435775;26;20464;-69
2024/04/17 01:56:07;;;;;;;306.80;68.30;;;;;3.90;95509.00;;;;5433326;26;20457;-69
2024/04/17 01:59:00;;;;;;;322.80;78.60;;;;;3.90;95519.00;;;;5428427;26;21055;-69
2024/04/17 02:01:48;;;;;;;321.00;78.73;;;;;3.80;95514.00;;;;5442858;26;20452;-69
2024/04/17 02:04:39;;;;;;;314.70;73.30;;;;;3.70;95506.00;;;;5445968;26;20903;-68
2024/04/17 02:07:27;;;;;;;333.77;95.80;;;;;3.20;95496.00;;;;5420327;26;20529;-68
2024/04/17 02:10:18;;;;;;;299.27;72.73;;;;;3.40;95509.00;;;;5415107;26;20459;-69
2024/04/17 02:13:06;;;;;;;324.00;84.37;;;;;3.30;95503.00;;;;5433068;26;20533;-69
2024/04/17 02:16:03;;;;;;;331.33;81.20;;;;;3.40;95497.00;;;;5426700;26;21056;-68
2024/04/17 02:18:51;;;;;;;305.00;81.43;;;;;3.10;95484.00;;;;5428213;26;20548;-68
2024/04/17 02:21:42;;;;;;;238.87;74.00;;;;;2.90;95492.00;;;;5445697;26;20539;-68
2024/04/17 02:24:30;;;;;;;240.03;74.93;;;;;3.60;95494.00;;;;5437984;26;20556;-68
2024/04/17 02:27:21;;;;;;;232.27;75.83;;;;;3.30;95491.00;;;;5411509;26;20459;-68
2024/04/17 02:30:11;;;;;;;217.43;68.90;;;;;3.50;95486.00;;;;5420079;26;20470;-68
2024/04/17 02:33:04;;;;;;;216.10;69.07;;;;;3.70;95483.00;;;;5443519;26;20551;-69
2024/04/17 02:35:55;;;;;;;237.13;78.90;;;;;3.60;95482.00;;;;5420304;26;20527;-68
2024/04/17 02:38:43;;;;;;;230.27;75.70;;;;;3.60;95476.00;;;;5425345;26;20455;-68
2024/04/17 02:41:34;;;;;;;217.23;72.03;;;;;3.90;95490.00;;;;5410613;26;20515;-69
2024/04/17 02:44:22;;;;;;;227.63;73.10;;;;;3.90;95486.00;;;;5424560;26;20510;-69
2024/04/17 02:47:13;;;;;;;268.77;73.00;;;;;4.00;95480.00;;;;5450374;26;20590;-68
2024/04/17 02:50:04;;;;;;;287.87;71.97;;;;;4.00;95483.00;;;;5447525;26;20529;-68
2024/04/17 02:52:54;;;;;;;304.43;77.80;;;;;4.00;95490.00;;;;5414305;26;20510;-68
2024/04/17 02:55:42;;;;;;;306.50;73.23;;;;;3.80;95476.00;;;;5428958;26;20509;-68
2024/04/17 02:58:33;;;;;;;283.20;79.83;;;;;3.30;95474.00;;;;5413284;26;20928;-68
2024/04/17 03:01:21;;;;;;;272.10;72.73;;;;;3.60;95488.00;;;;5438322;26;20517;-69
2024/04/17 03:04:12;;;;;;;258.50;72.50;;;;;3.90;95491.00;;;;5446978;26;20538;-69
2024/04/17 03:07:03;;;;;;;245.63;73.63;;;;;4.00;95489.00;;;;5448111;26;20454;-68
2024/04/17 03:09:54;;;;;;;258.40;76.47;;;;;4.10;95487.00;;;;5431991;26;21115;-68
2024/04/17 03:12:42;;;;;;;242.70;75.80;;;;;3.90;95482.00;;;;5437970;26;20466;-68
2024/04/17 03:15:36;;;;;;;236.80;73.07;;;;;3.90;95489.00;;;;5433932;26;20462;-69
2024/04/17 03:18:24;;;;;;;244.83;74.20;;;;;4.20;95501.00;;;;5436855;26;20458;-69
2024/04/17 03:21:15;;;;;;;254.00;74.60;;;;;4.10;95492.00;;;;5439219;26;20520;-68
2024/04/17 03:24:06;;;;;;;252.73;74.40;;;;;3.70;95491.00;;;;5444985;26;20514;-69
2024/04/17 03:26:57;;;;;;;262.60;79.77;;;;;4.40;95495.00;;;;5421497;26;21047;-69
2024/04/17 03:29:46;;;;;;;257.90;77.90;;;;;4.00;95487.00;;;;5417522;26;20439;-68
2024/04/17 03:32:37;;;;;;;262.70;74.17;;;;;4.20;95500.00;;;;5441968;26;20521;-69
2024/04/17 03:35:25;;;;;;;265.07;70.73;;;;;4.10;95500.00;;;;5435736;26;21144;-69
2024/04/17 03:38:16;;;;;;;277.10;74.87;;;;;4.00;95484.00;;;;5435053;26;20577;-68
2024/04/17 03:41:09;;;;;;;286.50;69.30;;;;;3.90;95495.00;;;;5433464;26;20506;-68
2024/04/17 03:44:00;;;;;;;326.53;103.27;;;;;3.90;95500.00;;;;5416515;26;20517;-69
2024/04/17 03:46:51;;;;;;;268.87;80.33;;;;;3.90;95503.00;;;;5428697;26;21071;-68
2024/04/17 03:49:42;;;;;;;284.50;82.07;;;;;3.80;95506.00;;;;5441466;26;20542;-68
2024/04/17 03:52:31;;;;;;;278.97;73.40;;;;;4.20;95491.00;;;;5425973;26;20454;-68
2024/04/17 03:55:22;;;;;;;276.07;74.87;;;;;4.40;95496.00;;;;5423375;26;21006;-69
2024/04/17 03:58:13;;;;;;;272.20;74.30;;;;;4.60;95507.00;;;;5431841;26;20577;-68
2024/04/17 04:01:03;;;;;;;285.03;75.47;;;;;3.90;95500.00;;;;5428485;26;20542;-68
2024/04/17 04:03:52;;;;;;;287.03;79.10;;;;;4.00;95493.00;;;;5431260;26;20454;-68
2024/04/17 04:06:43;;;;;;;274.37;73.80;;;;;4.60;95503.00;;;;5434529;26;20448;-69
2024/04/17 04:09:31;;;;;;;277.27;77.87;;;;;4.50;95489.00;;;;5440851;26;20451;-69
2024/04/17 04:12:23;;;;;;;280.67;71.00;;;;;4.40;95503.00;;;;5414279;26;20542;-69
2024/04/17 04:15:14;;;;;;;353.10;98.18;;;;;3.80;95500.00;;;;5418665;26;20329;-68
2024/04/17 04:18:05;;;;;;;317.10;81.80;;;;;3.90;95496.00;;;;5433959;26;20294;-69
2024/04/17 04:20:53;;;;;;;307.20;83.43;;;;;4.50;95503.00;;;;5433250;26;20525;-69
2024/04/17 04:23:44;;;;;;;297.20;77.67;;;;;4.90;95510.00;;;;5435478;26;20554;-68
2024/04/17 04:26:35;;;;;;;298.27;76.70;;;;;4.70;95517.00;;;;5444420;26;20514;-69
2024/04/17 04:29:23;;;;;;;306.57;79.43;;;;;4.50;95510.00;;;;5442294;26;20543;-69
2024/04/17 04:32:17;;;;;;;249.60;77.17;;;;;4.50;95511.00;;;;5437696;26;20535;-69
2024/04/17 04:35:06;;;;;;;256.20;76.27;;;;;5.00;95528.00;;;;5444619;26;20462;-70
2024/04/17 04:37:57;;;;;;;306.80;85.87;;;;;5.20;95532.00;;;;5433377;26;20803;-69
2024/04/17 04:40:48;;;;;;;311.97;77.93;;;;;4.80;95519.00;;;;5429499;26;20463;-69
2024/04/17 04:43:38;;;;;;;312.33;78.80;;;;;4.80;95516.00;;;;5426462;26;20448;-69
2024/04/17 04:46:27;;;;;;;293.77;75.20;;;;;4.70;95520.00;;;;5442658;26;20903;-70
2024/04/17 04:49:20;;;;;;;305.87;77.90;;;;;4.70;95517.00;;;;5434164;26;20529;-70
2024/04/17 04:52:08;;;;;;;309.53;78.90;;;;;5.10;95539.00;;;;5442598;26;20571;-70
2024/04/17 04:54:59;;;;;;;313.27;81.17;;;;;4.80;95522.00;;;;5430776;26;21053;-69
2024/04/17 04:57:48;;;;;;;313.20;85.23;;;;;4.50;95522.00;;;;5429472;26;20454;-69
2024/04/17 05:00:39;;;;;;;298.00;79.13;;;;;5.10;95553.00;;;;5446591;26;20447;-69
2024/04/17 05:03:27;;;;;;;287.97;74.23;;;;;4.80;95534.00;;;;5414431;26;20448;-69
2024/04/17 05:06:20;;;;;;;294.50;75.97;;;;;4.70;95526.00;;;;5425709;26;20883;-69
2024/04/17 05:09:12;;;;;;;311.10;74.47;;;;;5.50;95542.00;;;;5427285;26;20516;-69
2024/04/17 05:12:00;;;;;;;315.30;83.03;;;;;5.70;95563.00;;;;5430803;26;21013;-70
2024/04/17 05:14:51;;;;;;;320.63;82.73;;;;;5.70;95547.00;;;;5428045;26;20844;-69
2024/04/17 05:17:39;;;;;;;305.73;76.77;;;;;5.60;95541.00;;;;5439123;26;20547;-70
2024/04/17 05:20:30;;;;;;;306.70;77.33;;;;;6.00;95545.00;;;;5438808;26;20458;-70
2024/04/17 05:23:21;;;;;;;311.20;77.63;;;;;6.10;95549.00;;;;5433169;26;20458;-70
2024/04/17 05:26:12;;;;;;;318.13;78.87;;;;;6.30;95552.00;;;;5438720;26;20456;-70
2024/04/17 05:29:03;;;;;;;320.57;82.33;;;;;6.10;95544.00;;;;5437527;26;20462;-70
2024/04/17 05:31:51;;;;;;;303.07;83.73;;;;;6.40;95553.00;;;;5441249;26;20542;-70
2024/04/17 05:34:42;;;;;;;311.13;81.83;;;;;5.40;95541.00;;;;5437540;26;20462;-70
2024/04/17 05:37:30;;;;;;;292.40;80.37;;;;;5.40;95538.00;;;;5441055;26;21045;-70
2024/04/17 05:40:24;;;;;;;285.93;82.40;;;;;5.70;95541.00;;;;5443569;26;20449;-70
2024/04/17 05:43:13;;;;;;;277.57;79.17;;;;;6.20;95551.00;;;;5446299;26;20458;-70
2024/04/17 05:46:04;;;;;;;281.10;81.13;;;;;6.30;95551.00;;;;5435532;26;20555;-70
2024/04/17 05:48:55;;;;;;;290.13;86.97;;;;;5.80;95548.00;;;;5425965;26;20515;-70
2024/04/17 05:51:43;;;;;;;287.83;86.27;;;;;5.80;95543.00;;;;5427320;26;20462;-70
2024/04/17 05:54:34;;;;;;;287.50;82.37;;;;;5.90;95541.00;;;;5422157;26;20455;-69
2024/04/17 05:57:25;;;;;;;294.67;84.43;;;;;5.80;95542.00;;;;5432139;26;21039;-70
2024/04/17 06:00:17;;;;;;;297.37;81.00;;;;;6.50;95551.00;;;;5447872;26;20520;-71
2024/04/17 06:03:05;;;;;;;295.80;77.80;;;;;7.10;95549.00;;;;5426550;26;20459;-70
2024/04/17 06:05:56;;;;;;;329.10;86.90;;;;;7.10;95546.00;;;;5427370;26;20519;-70
2024/04/17 06:08:44;;;;;;;333.33;87.67;;;;;7.40;95545.00;;;;5413591;26;21032;-70
2024/04/17 06:11:35;;;;;;;339.00;88.40;;;;;7.60;95543.00;;;;5438008;26;21041;-70
2024/04/17 06:14:29;;;;;;;340.77;97.30;;;;;8.30;95550.00;;;;5436081;26;20514;-70
2024/04/17 06:17:17;;;;;;;347.80;93.30;;;;;8.10;95555.00;;;;5438211;26;21003;-70
2024/04/17 06:20:08;;;;;;;345.53;92.97;;;;;7.70;95568.00;;;;5432514;26;20450;-70
2024/04/17 06:22:57;;;;;;;354.83;98.77;;;;;7.70;95562.00;;;;5431944;26;20466;-70
2024/04/17 06:25:48;;;;;;;340.10;87.63;;;;;8.20;95568.00;;;;5426801;26;20515;-70
2024/04/17 06:28:39;;;;;;;342.47;97.47;;;;;8.50;95571.00;;;;5423100;26;20516;-71
2024/04/17 06:31:30;;;;;;;340.73;88.77;;;;;8.60;95572.00;;;;5436123;26;20450;-70
2024/04/17 06:34:21;;;;;;;343.13;87.63;;;;;8.80;95569.00;;;;5435440;26;20469;-71
2024/04/17 06:37:09;;;;;;;345.53;91.60;;;;;8.70;95577.00;;;;5436968;26;20453;-70
2024/04/17 06:40:00;;;;;;;340.93;89.70;;;;;9.10;95572.00;;;;5427616;26;20517;-70
2024/04/17 06:42:51;;;;;;;347.43;91.33;;;;;9.40;95572.00;;;;5414552;26;20876;-71
2024/04/17 06:45:39;;;;;;;346.83;92.63;;;;;9.40;95572.00;;;;5440860;26;20447;-71
2024/04/17 06:48:33;;;;;;;327.97;88.93;;;;;8.90;95563.00;;;;5435436;26;20632;-70
2024/04/17 06:51:21;;;;;;;348.40;96.63;;;;;8.90;95561.00;;;;5428590;26;20238;-70
2024/04/17 06:54:12;;;;;;;339.73;93.83;;;;;8.90;95565.00;;;;5431043;26;20509;-70
2024/04/17 06:57:03;;;;;;;336.40;100.87;;;;;9.10;95566.00;;;;5434951;26;20358;-70
2024/04/17 06:59:54;;;;;;;339.97;100.93;;;;;8.70;95563.00;;;;5434634;26;20579;-70
2024/04/17 07:02:42;;;;;;;341.33;92.77;;;;;8.80;95566.00;;;;5424814;26;20229;-71
2024/04/17 07:05:38;;;;;;;348.33;96.53;;;;;9.40;95572.00;;;;5437385;26;20749;-71
2024/04/17 07:08:26;;;;;;;339.93;96.53;;;;;9.30;95565.00;;;;5432924;26;20228;-70
2024/04/17 07:11:17;;;;;;;333.90;87.90;;;;;9.40;95563.00;;;;5420264;26;20267;-70
2024/04/17 07:14:08;;;;;;;344.63;91.57;;;;;9.60;95574.00;;;;5426503;26;20221;-71
2024/04/17 07:16:56;;;;;;;355.57;95.77;;;;;9.70;95581.00;;;;5419073;26;20312;-70
2024/04/17 07:19:47;;;;;;;352.83;95.20;;;;;10.10;95560.00;;;;5431639;26;20314;-70
2024/04/17 07:22:38;;;;;;;346.90;96.63;;;;;10.10;95580.00;;;;5433593;26;20292;-71
2024/04/17 07:25:29;;;;;;;345.37;92.20;;;;;10.30;95583.00;;;;5429904;26;20298;-71
2024/04/17 07:28:17;;;;;;;326.03;93.57;;;;;10.40;95585.00;;;;5433812;26;20241;-70
2024/04/17 07:31:08;;;;;;;335.87;99.83;;;;;10.60;95584.00;;;;5433750;26;20235;-71
2024/04/17 07:33:56;;;;;;;349.20;97.47;;;;;10.80;95588.00;;;;5438178;26;20275;-71
2024/04/17 07:36:49;;;;;;;346.50;96.03;;;;;11.10;95585.00;;;;5433694;26;20291;-70
2024/04/17 07:39:40;;;;;;;350.70;96.63;;;;;11.30;95575.00;;;;5442226;26;20768;-71
2024/04/17 07:42:31;;;;;;;348.50;94.27;;;;;11.20;95587.00;;;;5428868;26;20284;-71
2024/04/17 07:45:21;;;;;;;351.00;99.63;;;;;11.80;95585.00;;;;5423103;26;20279;-71
2024/04/17 07:48:12;;;;;;;351.30;104.07;;;;;12.20;95597.00;;;;5440603;26;20291;-71
2024/04/17 07:51:00;;;;;;;355.93;112.63;;;;;12.40;95589.00;;;;5428486;26;20358;-70
2024/04/17 07:53:51;;;;;;;358.43;115.40;;;;;12.20;95587.00;;;;5434645;26;20233;-71
2024/04/17 07:56:42;;;;;;;357.73;108.40;;;;;12.70;95592.00;;;;5432672;26;20230;-71
2024/04/17 07:59:33;;;;;;;355.30;106.50;;;;;13.40;95582.00;;;;5431829;26;20229;-71
2024/04/17 08:02:24;;;;;;;363.70;115.57;;;;;13.80;95593.00;;;;5425836;26;20282;-71
2024/04/17 08:05:13;;;;;;;365.30;119.37;;;;;14.20;95584.00;;;;5427245;26;20280;-71
2024/04/17 08:08:04;;;;;;;363.43;118.73;;;;;14.00;95582.00;;;;5418898;26;20764;-71
2024/04/17 08:10:52;;;;;;;376.43;129.73;;;;;14.70;95594.00;;;;5442606;26;20229;-70
2024/04/17 08:13:46;;;;;;;362.93;125.57;;;;;14.50;95592.00;;;;5432222;26;20271;-71
2024/04/17 08:16:34;;;;;;;368.53;128.80;;;;;14.30;95592.00;;;;5436476;26;20237;-71
2024/04/17 08:19:25;;;;;;;370.27;132.13;;;;;14.90;95591.00;;;;5435740;26;20338;-71
2024/04/17 08:22:13;;;;;;;373.20;134.50;;;;;14.80;95614.00;;;;5431476;26;20288;-71
2024/04/17 08:25:05;;;;;;;374.80;135.13;;;;;14.00;95600.00;;;;5437171;26;20237;-71
2024/04/17 08:27:53;;;;;;;388.60;146.40;;;;;14.10;95594.00;;;;5439832;26;20225;-71
2024/04/17 08:30:46;;;;;;;370.13;127.13;;;;;14.20;95607.00;;;;5438236;26;20229;-71
2024/04/17 08:33:35;;;;;;;369.10;130.17;;;;;13.90;95618.00;;;;5434211;26;20628;-70
2024/04/17 08:36:25;;;;;;;367.93;127.57;;;;;13.70;95601.00;;;;5441201;26;20346;-71
2024/04/17 08:39:16;;;;;;;366.90;127.50;;;;;14.00;95623.00;;;;5440274;26;20307;-71
2024/04/17 08:42:05;;;;;;;369.27;131.13;;;;;13.80;95623.00;;;;5434979;26;20324;-71
2024/04/17 08:44:56;;;;;;;371.30;126.53;;;;;13.60;95628.00;;;;5442213;26;20308;-70
2024/04/17 08:47:48;;;;;;;374.07;132.73;;;;;13.20;95631.00;;;;5443337;26;20296;-70
2024/04/17 08:50:39;;;;;;;361.90;118.57;;;;;13.60;95643.00;;;;5426283;26;20904;-71
2024/04/17 08:53:27;;;;;;;360.37;120.40;;;;;13.30;95646.00;;;;5429568;26;20234;-70
2024/04/17 08:56:19;;;;;;;362.93;122.63;;;;;13.40;95635.00;;;;5447541;26;20355;-70
2024/04/17 08:59:08;;;;;;;362.63;117.60;;;;;13.40;95648.00;;;;5445674;26;20283;-70
2024/04/17 09:02:00;;;;;;;372.90;125.03;;;;;13.40;95657.00;;;;5430085;26;20358;-70
2024/04/17 09:04:52;;;;;;;369.43;122.30;;;;;13.40;95654.00;;;;5417256;26;20301;-70
2024/04/17 09:07:44;;;;;;;364.70;121.57;;;;;13.50;95659.00;;;;5433073;26;20229;-70
2024/04/17 09:10:33;;;;;;;359.53;116.07;;;;;13.70;95649.00;;;;5434499;26;20820;-71
2024/04/17 09:13:23;;;;;;;363.87;121.07;;;;;13.90;95643.00;;;;5436012;26;20288;-70
2024/04/17 09:16:12;;;;;;;363.23;118.40;;;;;14.20;95638.00;;;;5428867;26;20739;-70
2024/04/17 09:19:03;;;;;;;365.50;123.03;;;;;15.20;95639.00;;;;5416546;26;20271;-71
2024/04/17 09:21:54;;;;;;;378.37;133.63;;;;;15.00;95659.00;;;;5443466;26;20233;-70
2024/04/17 09:24:44;;;;;;;370.73;124.87;;;;;14.70;95648.00;;;;5431978;26;20297;-71
2024/04/17 09:27:33;;;;;;;380.23;137.40;;;;;14.40;95653.00;;;;5440692;26;20642;-70
2024/04/17 09:30:24;;;;;;;369.37;130.60;;;;;14.90;95619.00;;;;5415284;26;20226;-71
2024/04/17 09:33:12;;;;;;;368.30;128.27;;;;;15.60;95651.00;;;;5427428;26;20281;-70
2024/04/17 09:36:03;;;;;;;376.40;134.13;;;;;15.70;95618.00;;;;5418594;26;20365;-70
2024/04/17 09:38:54;;;;;;;381.50;141.27;;;;;17.10;95603.00;;;;5432380;26;20234;-70
2024/04/17 09:41:45;;;;;;;376.37;140.50;;;;;16.70;95605.00;;;;5440714;26;20237;-71
2024/04/17 09:44:40;;;;;;;380.03;148.40;;;;;17.30;95640.00;;;;5439486;26;20228;-71
2024/04/17 09:47:29;;;;;;;388.77;155.17;;;;;16.40;95644.00;;;;5427711;26;20301;-70
2024/04/17 09:50:21;;;;;;;377.37;150.53;;;;;16.00;95642.00;;;;5420137;26;20275;-71
2024/04/17 09:53:12;;;;;;;379.97;155.40;;;;;15.80;95649.00;;;;5444424;26;20236;-70
2024/04/17 09:56:14;;;;;;;379.63;152.20;;;;;15.40;95650.00;;;;5421562;26;20829;-71
2024/04/17 09:59:03;;;;;;;384.77;152.00;;;;;15.60;95649.00;;;;5425857;26;20233;-71
2024/04/17 10:01:56;;;;;;;389.30;159.70;;;;;15.40;95659.00;;;;5443551;26;20282;-71
2024/04/17 10:04:46;;;;;;;382.07;150.00;;;;;14.60;95647.00;;;;5431770;26;20306;-71
2024/04/17 10:07:38;;;;;;;388.77;160.43;;;;;15.10;95650.00;;;;5444415;26;20284;-71
2024/04/17 10:10:27;;;;;;;376.27;144.63;;;;;14.90;95648.00;;;;5437214;26;20232;-71
2024/04/17 10:13:21;;;;;;;377.67;143.23;;;;;15.00;95649.00;;;;5435456;26;20338;-71
2024/04/17 10:16:12;;;;;;;376.10;141.43;;;;;14.10;95664.00;;;;5427431;26;20268;-71
2024/04/17 10:19:01;;;;;;;379.97;144.67;;;;;14.10;95654.00;;;;5427332;26;20708;-70
2024/04/17 10:21:52;;;;;;;383.97;143.53;;;;;14.00;95659.00;;;;5440520;26;20662;-70
2024/04/17 10:24:41;;;;;;;372.40;133.00;;;;;14.00;95666.00;;;;5441826;26;20232;-71
2024/04/17 10:27:38;;;;;;;379.03;138.27;;;;;13.70;95663.00;;;;5424732;26;20771;-70
2024/04/17 10:30:36;;;;;;;371.53;134.13;;;;;13.50;95673.00;;;;5424629;26;20236;-71
2024/04/17 10:33:30;;;;;;;371.97;132.83;;;;;13.70;95676.00;;;;5425123;26;20579;-70
2024/04/17 10:36:18;;;;;;;367.17;125.73;;;;;13.20;95673.00;;;;5425290;26;20236;-71
2024/04/17 10:39:09;;;;;;;372.53;128.73;;;;;13.30;95671.00;;;;5443744;26;20671;-71
2024/04/17 10:41:58;;;;;;;376.87;128.37;;;;;13.60;95674.00;;;;5444250;26;20244;-70
2024/04/17 10:44:51;;;;;;;368.87;121.43;;;;;14.10;95670.00;;;;5431015;26;20533;-70
2024/04/17 10:47:41;;;;;;;363.33;125.23;;;;;14.60;95664.00;;;;5431537;26;20286;-70
2024/04/17 10:50:32;;;;;;;360.27;122.37;;;;;15.00;95633.00;;;;5436956;26;20294;-71
2024/04/17 10:53:22;;;;;;;363.60;128.10;;;;;16.80;95619.00;;;;5438077;26;20386;-71
2024/04/17 10:56:13;;;;;;;366.23;138.07;;;;;16.90;95641.00;;;;5430948;26;20344;-71
2024/04/17 10:59:02;;;;;;;370.13;138.80;;;;;16.20;95649.00;;;;5433795;26;20296;-71
2024/04/17 11:01:55;;;;;;;379.60;153.17;;;;;16.00;95655.00;;;;5440115;26;20241;-71
2024/04/17 11:04:46;;;;;;;376.93;143.87;;;;;15.80;95647.00;;;;5440215;26;20283;-71
2024/04/17 11:07:37;;;;;;;383.43;150.67;;;;;17.10;95604.00;;;;5434088;26;20652;-71
2024/04/17 11:10:26;;;;;;;380.13;155.40;;;;;18.20;95586.00;;;;5435093;26;20241;-71
2024/04/17 11:13:19;;;;;;;374.67;149.90;;;;;18.70;95612.00;;;;5441309;26;20785;-70
2024/04/17 11:16:07;;;;;;;380.10;165.00;;;;;18.20;95631.00;;;;5447246;26;20294;-71
2024/04/17 11:18:58;;;;;;;392.43;179.17;;;;;18.20;95627.00;;;;5433450;26;20276;-71
2024/04/17 11:21:50;;;;;;;388.37;187.90;;;;;17.50;95623.00;;;;5448239;26;20233;-71
2024/04/17 11:24:46;;;;;;;385.83;182.33;;;;;16.80;95637.00;;;;5441336;26;20233;-71
2024/04/17 11:27:34;;;;;;;387.10;183.53;;;;;16.20;95633.00;;;;5440068;26;20286;-70
2024/04/17 11:30:25;;;;;;;382.63;173.47;;;;;16.10;95632.00;;;;5445569;26;20284;-70
2024/04/17 11:33:13;;;;;;;379.97;170.77;;;;;17.70;95575.00;;;;5439976;26;20794;-70
2024/04/17 11:36:11;;;;;;;385.10;177.53;;;;;17.30;95563.00;;;;5444255;26;20228;-69
2024/04/17 11:39:04;;;;;;;390.83;186.87;;;;;17.60;95550.00;;;;5446045;26;20813;-70
2024/04/17 11:41:53;;;;;;;385.60;180.87;;;;;17.10;95563.00;;;;5432864;26;20333;-70
2024/04/17 11:44:45;;;;;;;387.13;184.07;;;;;18.30;95545.00;;;;5444511;26;20233;-70
2024/04/17 11:47:33;;;;;;;390.97;186.97;;;;;18.30;95529.00;;;;5448430;26;20776;-71
2024/04/17 11:50:24;;;;;;;382.77;189.70;;;;;16.70;95574.00;;;;5445113;26;20294;-70
2024/04/17 11:53:12;;;;;;;377.73;183.07;;;;;16.10;95522.00;;;;5428908;26;20297;-70
2024/04/17 11:56:07;;;;;;;387.93;183.40;;;;;15.70;95591.00;;;;5420428;26;20840;-70
2024/04/17 11:58:55;;;;;;;382.90;177.90;;;;;18.70;95586.00;;;;5435304;26;20226;-69
2024/04/17 12:01:46;;;;;;;385.50;183.20;;;;;15.20;95577.00;;;;5437495;26;20233;-68
2024/04/17 12:04:34;;;;;;;382.20;172.67;;;;;15.00;95591.00;;;;5440836;26;20292;-71
2024/04/17 12:07:25;;;;;;;407.00;179.93;;;;;15.80;95582.00;;;;5419734;26;20275;-70
2024/04/17 12:10:14;;;;;;;395.87;174.90;;;;;17.30;95561.00;;;;5427087;26;20228;-71
2024/04/17 12:13:07;;;;;;;397.73;181.40;;;;;14.80;95561.00;;;;5426838;26;20300;-70
2024/04/17 12:15:56;;;;;;;391.70;164.10;;;;;14.40;95562.00;;;;5424454;26;20221;-70
2024/04/17 12:18:47;;;;;;;386.43;164.67;;;;;18.60;95557.00;;;;5430562;26;20236;-71
2024/04/17 12:21:35;;;;;;;389.73;177.77;;;;;20.40;95508.00;;;;5427989;26;20230;-71
2024/04/17 12:26:49;;;;;;;389.77;189.20;;;;;21.00;95534.00;;;;5431033;26;20334;-71
2024/04/17 12:27:34;;;;;;;402.57;224.17;;;;;22.50;95522.00;;;;5432960;26;20241;-71
2024/04/17 12:30:27;;;;;;;403.43;255.17;;;;;21.50;95590.00;;;;5430200;26;20221;-71
2024/04/17 12:33:18;;;;;;;405.07;270.93;;;;;20.20;95520.00;;;;5430823;26;20312;-71
2024/04/17 12:36:10;;;;;;;408.80;283.17;;;;;17.10;95499.00;;;;5431364;26;20788;-69
2024/04/17 12:39:01;;;;;;;414.30;292.87;;;;;21.00;95567.00;;;;5427315;26;20271;-71
2024/04/17 12:41:52;;;;;;;415.43;303.00;;;;;20.80;95506.00;;;;5425387;26;20342;-71
2024/04/17 12:44:43;;;;;;;415.53;307.43;;;;;20.90;95591.00;;;;5432486;26;20271;-71
2024/04/17 12:47:37;;;;;;;415.80;313.07;;;;;20.20;95516.00;;;;5429272;26;20276;-71
2024/04/17 12:50:28;;;;;;;408.60;304.40;;;;;20.70;95588.00;;;;5430738;26;20244;-72
2024/04/17 12:53:20;;;;;;;399.60;298.63;;;;;16.90;95578.00;;;;5432772;26;20275;-70
2024/04/17 12:56:11;;;;;;;398.43;275.07;;;;;18.70;95567.00;;;;5428040;26;20753;-72
2024/04/17 12:59:02;;;;;;;400.33;269.07;;;;;16.50;95584.00;;;;5437397;26;20236;-71
2024/04/17 13:01:50;;;;;;;399.70;242.23;;;;;16.70;95502.00;;;;5435495;26;20237;-70
2024/04/17 13:04:47;;;;;;;391.43;226.50;;;;;17.40;95501.00;;;;5445763;26;20271;-69
2024/04/17 13:07:35;;;;;;;395.50;223.10;;;;;18.60;95509.00;;;;5440813;26;20232;-71
2024/04/17 13:10:27;;;;;;;379.80;226.43;;;;;19.90;95510.00;;;;5443797;26;20281;-70
2024/04/17 13:13:15;;;;;;;387.60;225.00;;;;;16.10;95572.00;;;;5438606;26;20297;-71
2024/04/17 13:16:07;;;;;;;381.90;205.97;;;;;16.80;95562.00;;;;5439187;26;20590;-71
2024/04/17 13:18:55;;;;;;;389.77;227.83;;;;;19.20;95484.00;;;;5440170;26;20289;-69
2024/04/17 13:21:49;;;;;;;377.80;214.50;;;;;18.70;95491.00;;;;5443355;26;20229;-71
2024/04/17 13:24:37;;;;;;;387.60;230.77;;;;;16.90;95541.00;;;;5443792;26;20233;-69
2024/04/17 13:27:28;;;;;;;394.20;235.37;;;;;16.60;95465.00;;;;5437849;26;20241;-70
2024/04/17 13:30:16;;;;;;;383.40;214.17;;;;;15.60;95469.00;;;;5442452;26;20233;-68
2024/04/17 13:33:07;;;;;;;395.17;225.63;;;;;14.50;95508.00;;;;5438527;26;20229;-67
2024/04/17 13:35:56;;;;;;;389.30;191.60;;;;;14.70;95562.00;;;;5440521;26;20320;-69
2024/04/17 13:38:49;;;;;;;378.80;175.77;;;;;15.30;95572.00;;;;5442327;26;20240;-70